createdAt,value
2018-04-18T00:00:24.123Z,15.60
2018-04-18T00:02:50.391Z,15.50
2018-04-18T00:05:17.412Z,15.50
2018-04-18T00:07:45.553Z,15.60
2018-04-18T00:10:12.072Z,15.50
2018-04-18T00:12:38.497Z,15.60
2018-04-18T00:15:04.811Z,15.60
2018-04-18T00:17:31.231Z,15.50
2018-04-18T00:19:57.563Z,15.30
2018-04-18T00:22:23.794Z,15.20
2018-04-18T00:24:50.179Z,15.10
2018-04-18T00:27:16.318Z,15.10
2018-04-18T00:29:43.258Z,15.00
2018-04-18T00:32:10.351Z,15.00
2018-04-18T00:34:37.575Z,15.00
2018-04-18T00:37:03.704Z,15.00
2018-04-18T00:39:30.160Z,15.00
2018-04-18T00:41:56.315Z,14.90
2018-04-18T00:44:22.613Z,14.90
2018-04-18T00:46:48.724Z,14.90
2018-04-18T00:49:15.740Z,14.80
2018-04-18T00:51:46.431Z,14.80
2018-04-18T00:54:12.763Z,14.80
2018-04-18T00:56:39.918Z,14.70
2018-04-18T00:59:06.098Z,14.70
2018-04-18T01:01:32.325Z,14.70
2018-04-18T01:03:58.500Z,14.80
2018-04-18T01:06:24.667Z,14.80
2018-04-18T01:08:51.918Z,14.70
2018-04-18T01:11:18.139Z,14.80
2018-04-18T01:13:44.275Z,14.80
2018-04-18T01:16:10.487Z,14.90
2018-04-18T01:18:37.475Z,14.80
2018-04-18T01:21:04.122Z,14.80
2018-04-18T01:23:30.299Z,14.70
2018-04-18T01:25:57.591Z,14.60
2018-04-18T01:28:23.825Z,14.60
2018-04-18T01:30:49.935Z,14.50
2018-04-18T01:33:16.032Z,14.40
2018-04-18T01:35:42.156Z,14.40
2018-04-18T01:38:08.295Z,14.40
2018-04-18T01:40:35.311Z,14.40
2018-04-18T01:43:01.415Z,14.40
2018-04-18T01:45:28.300Z,14.40
2018-04-18T01:47:54.521Z,14.30
2018-04-18T01:50:20.584Z,14.30
2018-04-18T01:52:46.845Z,14.30
2018-04-18T01:55:12.993Z,14.30
2018-04-18T01:57:40.559Z,14.30
2018-04-18T02:00:07.562Z,14.30
2018-04-18T02:02:33.701Z,14.30
2018-04-18T02:04:59.932Z,14.30
2018-04-18T02:07:26.743Z,14.20
2018-04-18T02:09:53.751Z,14.30
2018-04-18T02:12:20.005Z,14.30
2018-04-18T02:14:46.203Z,14.20
2018-04-18T02:17:12.523Z,14.30
2018-04-18T02:19:39.319Z,14.40
2018-04-18T02:22:05.886Z,14.20
2018-04-18T02:24:33.849Z,13.90
2018-04-18T02:27:00.212Z,13.90
2018-04-18T02:29:27.076Z,13.90
2018-04-18T02:31:53.242Z,13.90
2018-04-18T02:34:19.451Z,13.70
2018-04-18T02:36:45.654Z,13.60
2018-04-18T02:39:12.024Z,13.50
2018-04-18T02:41:38.289Z,13.50
2018-04-18T02:44:05.175Z,13.50
2018-04-18T02:46:31.804Z,13.40
2018-04-18T02:48:58.758Z,13.60
2018-04-18T02:51:25.111Z,13.50
2018-04-18T02:53:51.853Z,13.70
2018-04-18T02:56:18.057Z,13.70
2018-04-18T02:58:45.610Z,13.90
2018-04-18T03:01:12.684Z,13.80
2018-04-18T03:03:39.582Z,13.80
2018-04-18T03:06:07.304Z,13.80
2018-04-18T03:08:33.584Z,13.90
2018-04-18T03:10:59.861Z,13.90
2018-04-18T03:13:26.774Z,13.70
2018-04-18T03:15:52.931Z,13.70
2018-04-18T03:18:20.875Z,13.50
2018-04-18T03:20:47.223Z,13.50
2018-04-18T03:23:13.531Z,13.70
2018-04-18T03:25:40.709Z,13.60
2018-04-18T03:28:07.659Z,13.60
2018-04-18T03:30:33.817Z,13.50
2018-04-18T03:32:59.981Z,13.50
2018-04-18T03:35:26.937Z,13.50
2018-04-18T03:37:53.758Z,13.50
2018-04-18T03:40:22.560Z,13.60
2018-04-18T03:42:48.817Z,13.50
2018-04-18T03:45:15.686Z,13.40
2018-04-18T03:47:42.685Z,13.40
2018-04-18T03:50:09.584Z,13.30
2018-04-18T03:52:36.784Z,13.40
2018-04-18T03:55:02.936Z,13.30
2018-04-18T03:57:29.884Z,13.40
2018-04-18T03:59:56.696Z,13.40
2018-04-18T04:02:23.434Z,13.30
2018-04-18T04:04:49.673Z,13.40
2018-04-18T04:07:16.758Z,13.40
2018-04-18T04:09:43.150Z,13.30
2018-04-18T04:12:09.374Z,13.10
2018-04-18T04:14:35.734Z,12.90
2018-04-18T04:17:14.520Z,12.60
2018-04-18T04:33:20.305Z,12.50
2018-04-18T04:35:47.249Z,12.50
2018-04-18T04:38:14.400Z,12.40
2018-04-18T04:40:40.721Z,12.50
2018-04-18T04:43:06.995Z,12.50
2018-04-18T04:45:33.170Z,12.50
2018-04-18T04:48:00.323Z,12.60
2018-04-18T04:50:26.856Z,12.90
2018-04-18T04:52:54.218Z,13.00
2018-04-18T04:55:20.447Z,13.00
2018-04-18T04:57:46.557Z,13.10
2018-04-18T05:00:12.711Z,13.10
2018-04-18T05:02:39.025Z,13.10
2018-04-18T05:05:07.011Z,13.20
2018-04-18T05:07:33.224Z,13.10
2018-04-18T05:10:01.168Z,13.00
2018-04-18T05:12:27.725Z,12.90
2018-04-18T05:14:53.956Z,13.00
2018-04-18T05:17:20.902Z,13.10
2018-04-18T05:19:47.635Z,13.30
2018-04-18T05:22:14.682Z,13.40
2018-04-18T05:24:41.030Z,13.50
2018-04-18T05:27:07.219Z,13.50
2018-04-18T05:29:33.595Z,13.40
2018-04-18T05:32:01.381Z,13.50
2018-04-18T05:34:28.857Z,13.60
2018-04-18T05:36:57.231Z,13.70
2018-04-18T05:39:23.606Z,13.60
2018-04-18T05:41:49.934Z,13.70
2018-04-18T05:44:16.176Z,13.70
2018-04-18T05:46:43.200Z,13.70
2018-04-18T05:49:11.150Z,13.70
2018-04-18T05:51:39.729Z,13.80
2018-04-18T05:54:05.889Z,13.70
2018-04-18T05:56:32.176Z,13.80
2018-04-18T05:58:58.670Z,13.90
2018-04-18T06:01:24.875Z,13.90
2018-04-18T06:03:53.195Z,14.00
2018-04-18T06:06:19.501Z,14.00
2018-04-18T06:08:45.653Z,14.10
2018-04-18T06:11:12.661Z,14.30
2018-04-18T06:13:38.872Z,14.30
2018-04-18T06:16:05.333Z,14.40
2018-04-18T06:18:31.646Z,14.50
2018-04-18T06:20:57.883Z,14.60
2018-04-18T06:23:24.194Z,14.60
2018-04-18T06:25:50.375Z,14.70
2018-04-18T06:28:16.710Z,14.80
2018-04-18T06:30:43.661Z,14.80
2018-04-18T06:33:11.169Z,14.80
2018-04-18T06:35:38.399Z,14.80
2018-04-18T06:38:04.569Z,15.00
2018-04-18T06:40:30.749Z,15.00
2018-04-18T06:42:57.565Z,15.10
2018-04-18T06:45:24.744Z,15.10
2018-04-18T06:47:51.580Z,15.20
2018-04-18T06:50:18.079Z,15.40
2018-04-18T06:52:45.874Z,15.50
2018-04-18T06:55:12.210Z,15.60
2018-04-18T06:57:39.324Z,15.60
2018-04-18T07:00:05.402Z,15.70
2018-04-18T07:02:31.952Z,15.80
2018-04-18T07:04:58.247Z,16.00
2018-04-18T07:07:25.506Z,16.10
2018-04-18T07:09:52.412Z,16.10
2018-04-18T07:12:18.680Z,16.00
2018-04-18T07:14:45.420Z,16.10
2018-04-18T07:17:13.025Z,16.30
2018-04-18T07:19:39.504Z,16.30
2018-04-18T07:22:08.807Z,16.40
2018-04-18T07:24:35.035Z,16.50
2018-04-18T07:27:01.872Z,16.70
2018-04-18T07:29:31.270Z,16.80
2018-04-18T07:31:57.708Z,16.80
2018-04-18T07:34:24.570Z,16.80
2018-04-18T07:36:50.687Z,16.80
2018-04-18T07:39:16.897Z,17.00
2018-04-18T07:41:43.142Z,17.00
2018-04-18T07:44:10.009Z,17.00
2018-04-18T07:46:38.203Z,17.20
2018-04-18T07:49:05.705Z,17.30
2018-04-18T07:51:31.796Z,17.20
2018-04-18T07:53:57.925Z,17.30
2018-04-18T07:56:24.251Z,17.40
2018-04-18T07:58:50.632Z,17.50
2018-04-18T08:01:16.805Z,17.80
2018-04-18T08:03:42.918Z,17.80
2018-04-18T08:06:09.049Z,17.80
2018-04-18T08:08:35.229Z,17.70
2018-04-18T08:11:01.471Z,17.80
2018-04-18T08:13:28.188Z,17.90
2018-04-18T08:15:54.484Z,17.90
2018-04-18T08:18:20.816Z,18.00
2018-04-18T08:20:47.917Z,18.30
2018-04-18T08:23:14.214Z,18.50
2018-04-18T08:25:40.720Z,18.60
2018-04-18T08:28:06.974Z,18.60
2018-04-18T08:30:35.547Z,18.60
2018-04-18T08:33:01.810Z,18.60
2018-04-18T08:35:29.717Z,18.90
2018-04-18T08:37:55.858Z,18.90
2018-04-18T08:40:22.032Z,19.10
2018-04-18T08:42:48.263Z,19.30
2018-04-18T08:45:15.387Z,19.40
2018-04-18T08:47:42.924Z,19.40
2018-04-18T08:50:09.379Z,19.40
2018-04-18T08:52:35.602Z,19.70
2018-04-18T08:55:01.956Z,19.80
2018-04-18T08:57:28.180Z,19.80
2018-04-18T08:59:54.315Z,19.90
2018-04-18T09:02:20.483Z,19.90
2018-04-18T09:04:46.705Z,20.00
2018-04-18T09:07:12.826Z,20.30
2018-04-18T09:09:40.812Z,20.40
2018-04-18T09:12:07.090Z,20.40
2018-04-18T09:14:33.455Z,20.40
2018-04-18T09:16:59.747Z,20.60
2018-04-18T09:19:27.557Z,20.70
2018-04-18T09:22:02.324Z,20.80
2018-04-18T09:24:30.759Z,21.00
2018-04-18T09:26:59.026Z,21.10
2018-04-18T09:29:25.427Z,21.30
2018-04-18T09:31:53.848Z,21.40
2018-04-18T09:34:20.895Z,21.50
2018-04-18T09:36:50.236Z,21.60
2018-04-18T09:39:16.344Z,21.60
2018-04-18T09:41:42.668Z,21.60
2018-04-18T09:44:10.113Z,21.70
2018-04-18T09:46:37.066Z,21.80
2018-04-18T09:49:04.065Z,21.90
2018-04-18T09:51:31.207Z,21.90
2018-04-18T09:56:37.656Z,22.30
2018-04-18T09:59:04.906Z,22.30
2018-04-18T10:01:37.117Z,22.30
2018-04-18T10:04:08.927Z,22.40
2018-04-18T10:06:35.530Z,22.50
2018-04-18T10:09:01.751Z,22.40
2018-04-18T10:11:28.141Z,22.50
2018-04-18T10:13:55.384Z,22.60
2018-04-18T10:16:21.913Z,22.80
2018-04-18T10:18:48.414Z,22.90
2018-04-18T10:21:14.681Z,23.00
2018-04-18T10:23:41.168Z,23.10
2018-04-18T10:26:07.339Z,23.30
2018-04-18T10:28:34.089Z,23.50
2018-04-18T10:31:00.225Z,23.60
2018-04-18T10:33:26.471Z,23.70
2018-04-18T10:35:52.616Z,23.70
2018-04-18T10:38:19.311Z,23.80
2018-04-18T10:40:45.433Z,23.80
2018-04-18T10:43:11.614Z,23.90
2018-04-18T10:45:38.184Z,24.00
2018-04-18T10:48:04.322Z,24.10
2018-04-18T10:50:31.306Z,24.20
2018-04-18T10:52:57.417Z,24.10
2018-04-18T10:55:23.729Z,24.20
2018-04-18T10:57:49.950Z,24.10
2018-04-18T11:00:17.039Z,23.90
2018-04-18T11:02:43.773Z,24.20
2018-04-18T11:05:11.377Z,24.40
2018-04-18T11:07:37.933Z,24.50
2018-04-18T11:10:04.259Z,24.00
2018-04-18T11:12:30.490Z,23.70
2018-04-18T11:14:56.758Z,23.90
2018-04-18T11:17:23.211Z,24.20
2018-04-18T11:19:51.140Z,25.20
2018-04-18T11:22:17.232Z,25.10
2018-04-18T11:24:43.465Z,25.40
2018-04-18T11:27:09.691Z,25.70
2018-04-18T11:29:35.933Z,25.80
2018-04-18T11:32:02.845Z,26.10
2018-04-18T11:34:29.140Z,26.00
2018-04-18T11:36:56.018Z,26.10
2018-04-18T11:39:22.753Z,26.10
2018-04-18T11:41:49.286Z,25.80
2018-04-18T11:44:15.478Z,25.20
2018-04-18T11:46:42.373Z,25.30
2018-04-18T11:49:08.687Z,25.60
2018-04-18T11:51:35.763Z,26.10
2018-04-18T11:54:01.905Z,26.40
2018-04-18T11:56:28.197Z,26.50
2018-04-18T11:58:54.611Z,26.70
2018-04-18T12:01:21.178Z,27.10
2018-04-18T12:03:48.962Z,27.30
2018-04-18T12:06:15.100Z,27.30
2018-04-18T12:08:42.058Z,27.70
2018-04-18T12:11:08.437Z,27.60
2018-04-18T12:13:35.480Z,27.20
2018-04-18T12:16:01.684Z,27.20
2018-04-18T12:18:28.365Z,27.30
2018-04-18T12:20:54.432Z,27.00
2018-04-18T12:23:21.414Z,26.50
2018-04-18T12:25:47.646Z,26.50
2018-04-18T12:28:14.891Z,26.80
2018-04-18T12:30:41.725Z,27.20
2018-04-18T12:33:09.444Z,27.20
2018-04-18T12:35:35.586Z,27.50
2018-04-18T12:38:01.791Z,27.70
2018-04-18T12:40:29.213Z,27.90
2018-04-18T12:42:56.190Z,28.00
2018-04-18T12:45:23.185Z,27.30
2018-04-18T12:47:50.838Z,26.80
2018-04-18T12:50:17.923Z,26.70
2018-04-18T12:52:44.951Z,26.70
2018-04-18T12:55:12.233Z,26.60
2018-04-18T12:57:39.069Z,27.00
2018-04-18T13:00:05.940Z,27.40
2018-04-18T13:02:33.547Z,27.50
2018-04-18T13:05:01.139Z,27.50
2018-04-18T13:07:28.442Z,27.70
2018-04-18T13:09:55.209Z,27.80
2018-04-18T13:12:21.545Z,27.70
2018-04-18T13:14:48.609Z,28.00
2018-04-18T13:17:14.818Z,28.30
2018-04-18T13:19:41.123Z,28.50
2018-04-18T13:22:07.189Z,28.80
2018-04-18T13:24:34.714Z,29.10
2018-04-18T13:27:00.841Z,29.00
2018-04-18T13:29:27.700Z,28.90
2018-04-18T13:31:53.942Z,28.70
2018-04-18T13:34:20.129Z,29.10
2018-04-18T13:36:49.213Z,29.30
2018-04-18T13:39:16.082Z,29.50
2018-04-18T13:41:42.195Z,28.90
2018-04-18T13:44:08.974Z,28.50
2018-04-18T13:46:35.595Z,28.60
2018-04-18T13:49:03.503Z,28.90
2018-04-18T13:51:30.195Z,29.00
2018-04-18T13:53:57.468Z,29.30
2018-04-18T13:56:24.617Z,29.30
2018-04-18T13:58:54.819Z,29.30
2018-04-18T14:01:23.189Z,29.70
2018-04-18T14:03:50.923Z,29.70
2018-04-18T14:06:17.185Z,29.60
2018-04-18T14:08:43.807Z,29.60
2018-04-18T14:11:14.075Z,29.70
2018-04-18T14:13:40.881Z,29.70
2018-04-18T14:16:07.721Z,30.10
2018-04-18T14:18:35.031Z,30.20
2018-04-18T14:21:01.392Z,30.10
2018-04-18T14:23:28.452Z,30.00
2018-04-18T14:25:56.365Z,29.80
2018-04-18T14:28:23.071Z,29.30
2018-04-18T14:30:58.554Z,29.30
2018-04-18T14:33:25.550Z,29.30
2018-04-18T14:35:53.085Z,29.00
2018-04-18T14:38:19.522Z,28.90
2018-04-18T14:40:45.828Z,29.30
2018-04-18T14:43:13.837Z,29.50
2018-04-18T14:45:40.826Z,29.90
2018-04-18T14:48:07.523Z,29.80
2018-04-18T14:50:36.873Z,29.50
2018-04-18T14:53:03.627Z,29.40
2018-04-18T14:55:30.303Z,29.40
2018-04-18T14:57:58.031Z,29.90
2018-04-18T15:02:56.417Z,29.90
2018-04-18T15:05:22.546Z,30.10
2018-04-18T15:07:48.772Z,30.40
2018-04-18T15:10:18.144Z,31.10
2018-04-18T15:12:51.486Z,31.10
2018-04-18T15:15:25.178Z,31.10
2018-04-18T15:17:52.101Z,31.40
2018-04-18T15:20:19.195Z,31.30
2018-04-18T15:22:45.801Z,31.30
2018-04-18T15:25:13.280Z,31.40
2018-04-18T15:27:46.772Z,31.30
2018-04-18T15:30:15.163Z,31.30
2018-04-18T15:32:42.330Z,31.30
2018-04-18T15:35:10.005Z,31.30
2018-04-18T15:37:36.696Z,31.30
2018-04-18T15:40:03.859Z,31.00
2018-04-18T15:42:32.326Z,30.90
2018-04-18T15:44:59.435Z,31.10
2018-04-18T15:47:26.481Z,31.30
2018-04-18T15:49:53.140Z,31.60
2018-04-18T15:52:19.608Z,31.80
2018-04-18T15:54:45.704Z,32.00
2018-04-18T15:57:12.757Z,31.90
2018-04-18T15:59:40.152Z,32.00
2018-04-18T16:02:06.543Z,31.90
2018-04-18T16:04:34.031Z,32.30
2018-04-18T16:07:00.991Z,32.20
2018-04-18T16:09:27.093Z,32.40
2018-04-18T16:11:54.646Z,32.60
2018-04-18T16:14:22.328Z,32.70
2018-04-18T16:16:48.612Z,32.60
2018-04-18T16:19:15.005Z,32.60
2018-04-18T16:21:42.587Z,32.70
2018-04-18T16:24:10.327Z,32.60
2018-04-18T16:26:37.547Z,32.40
2018-04-18T16:29:15.906Z,32.40
2018-04-18T16:31:43.439Z,32.40
2018-04-18T16:34:12.490Z,32.40
2018-04-18T16:36:40.099Z,32.80
2018-04-18T16:39:06.456Z,33.10
2018-04-18T16:41:34.577Z,32.90
2018-04-18T16:44:02.773Z,32.90
2018-04-18T16:46:28.972Z,32.80
2018-04-18T16:48:58.075Z,33.00
2018-04-18T16:51:24.865Z,32.90
2018-04-18T16:53:53.062Z,33.20
2018-04-18T16:56:20.290Z,33.20
2018-04-18T16:58:46.334Z,33.10
2018-04-18T17:01:12.494Z,33.00
2018-04-18T17:03:40.023Z,32.90
2018-04-18T17:06:08.483Z,32.80
2018-04-18T17:08:34.651Z,32.90
2018-04-18T17:11:02.622Z,32.90
2018-04-18T17:13:32.747Z,32.70
2018-04-18T17:15:59.898Z,32.10
2018-04-18T17:18:26.893Z,32.10
2018-04-18T17:20:53.229Z,32.00
2018-04-18T17:23:19.539Z,31.90
2018-04-18T17:25:45.722Z,32.00
2018-04-18T17:28:12.541Z,32.30
2018-04-18T17:30:38.645Z,32.30
2018-04-18T17:33:06.615Z,32.40
2018-04-18T17:35:33.916Z,32.30
2018-04-18T17:38:00.017Z,32.50
2018-04-18T17:40:26.565Z,32.60
2018-04-18T17:42:54.406Z,32.90
2018-04-18T17:45:20.418Z,32.90
2018-04-18T17:47:47.343Z,33.50
2018-04-18T17:52:31.091Z,32.60
2018-04-18T17:54:57.356Z,32.50
2018-04-18T17:57:23.528Z,31.60
2018-04-18T17:59:51.242Z,30.00
2018-04-18T18:02:17.447Z,29.90
2018-04-18T18:04:43.805Z,29.40
2018-04-18T18:07:10.790Z,28.60
2018-04-18T18:09:36.995Z,28.50
2018-04-18T18:12:03.581Z,28.30
2018-04-18T18:14:30.657Z,27.70
2018-04-18T18:16:56.829Z,27.60
2018-04-18T18:19:23.923Z,27.50
2018-04-18T18:21:51.782Z,27.30
2018-04-18T18:24:18.834Z,27.10
2018-04-18T18:26:45.899Z,26.80
2018-04-18T18:29:12.043Z,26.60
2018-04-18T18:31:38.304Z,26.40
2018-04-18T18:34:04.573Z,26.20
2018-04-18T18:36:30.916Z,26.00
2018-04-18T18:38:57.133Z,26.00
2018-04-18T18:41:23.256Z,25.80
2018-04-18T18:43:49.479Z,25.70
2018-04-18T18:46:16.507Z,25.50
2018-04-18T18:48:42.638Z,25.40
2018-04-18T18:51:08.759Z,25.30
2018-04-18T18:53:35.705Z,25.00
2018-04-18T18:56:01.920Z,24.90
2018-04-18T18:58:28.120Z,24.90
2018-04-18T19:00:54.212Z,24.90
2018-04-18T19:03:21.250Z,24.80
2018-04-18T19:05:47.428Z,24.60
2018-04-18T19:08:13.715Z,24.50
2018-04-18T19:10:41.515Z,24.40
2018-04-18T19:13:07.598Z,24.30
2018-04-18T19:15:33.756Z,24.30
2018-04-18T19:18:00.147Z,24.20
2018-04-18T19:20:27.245Z,24.10
2018-04-18T19:22:53.431Z,24.00
2018-04-18T19:25:19.697Z,24.00
2018-04-18T19:27:47.154Z,23.90
2018-04-18T19:30:13.321Z,23.70
2018-04-18T19:32:39.440Z,23.60
2018-04-18T19:35:05.643Z,23.40
2018-04-18T19:37:31.946Z,23.10
2018-04-18T19:39:58.812Z,22.90
2018-04-18T19:42:25.252Z,22.80
2018-04-18T19:44:53.060Z,22.90
2018-04-18T19:47:19.291Z,22.80
2018-04-18T19:49:46.127Z,22.50
2018-04-18T19:52:12.205Z,22.40
2018-04-18T19:54:40.743Z,22.40
2018-04-18T19:57:06.940Z,22.40
2018-04-18T19:59:33.860Z,22.40
2018-04-18T20:01:59.913Z,22.40
2018-04-18T20:04:26.184Z,22.40
2018-04-18T20:06:53.197Z,22.40
2018-04-18T20:09:20.029Z,22.30
2018-04-18T20:11:46.390Z,22.20
2018-04-18T20:14:13.317Z,22.20
2018-04-18T20:16:40.328Z,22.00
2018-04-18T20:19:07.291Z,21.80
2018-04-18T20:21:34.266Z,21.70
2018-04-18T20:24:00.354Z,21.60
2018-04-18T20:26:26.690Z,21.70
2018-04-18T20:28:52.965Z,21.70
2018-04-18T20:31:19.331Z,21.60
2018-04-18T20:33:45.669Z,21.60
2018-04-18T20:36:12.694Z,21.50
2018-04-18T20:38:38.858Z,21.50
2018-04-18T20:41:06.049Z,21.50
2018-04-18T20:43:32.808Z,21.50
2018-04-18T20:45:59.115Z,21.60
2018-04-18T20:48:25.754Z,21.50
2018-04-18T20:50:52.071Z,21.40
2018-04-18T20:53:18.375Z,21.40
2018-04-18T20:55:44.857Z,21.30
2018-04-18T20:58:12.582Z,21.20
2018-04-18T21:00:38.748Z,21.10
2018-04-18T21:03:05.113Z,21.00
2018-04-18T21:05:31.388Z,20.90
2018-04-18T21:07:57.791Z,20.70
2018-04-18T21:10:24.997Z,20.80
2018-04-18T21:12:52.050Z,20.60
2018-04-18T21:15:20.723Z,20.50
2018-04-18T21:17:48.488Z,20.50
2018-04-18T21:20:18.613Z,20.40
2018-04-18T21:22:45.629Z,20.40
2018-04-18T21:25:12.543Z,20.40
2018-04-18T21:27:42.031Z,20.30
2018-04-18T21:30:10.424Z,20.20
2018-04-18T21:32:39.046Z,20.10
2018-04-18T21:35:06.421Z,20.10
2018-04-18T21:37:33.422Z,20.10
2018-04-18T21:39:59.844Z,20.10
2018-04-18T21:42:27.261Z,20.00
2018-04-18T21:44:53.461Z,20.00
2018-04-18T21:47:22.515Z,20.10
2018-04-18T21:49:49.740Z,20.10
2018-04-18T21:52:19.246Z,20.00
2018-04-18T21:54:45.717Z,20.00
2018-04-18T21:57:13.550Z,20.00
2018-04-18T21:59:41.828Z,19.90
2018-04-18T22:02:08.267Z,19.80
2018-04-18T22:04:34.505Z,19.70
2018-04-18T22:07:02.898Z,19.60
2018-04-18T22:09:36.912Z,19.60
2018-04-18T22:12:03.040Z,19.50
2018-04-18T22:14:30.238Z,19.50
2018-04-18T22:16:56.493Z,19.50
2018-04-18T22:19:22.629Z,19.50
2018-04-18T22:21:50.084Z,19.40
2018-04-18T22:24:17.201Z,19.40
2018-04-18T22:26:44.609Z,19.40
2018-04-18T22:29:11.176Z,19.40
2018-04-18T22:31:37.713Z,19.40
2018-04-18T22:34:04.788Z,19.40
2018-04-18T22:36:33.367Z,19.40
2018-04-18T22:39:00.655Z,19.40
2018-04-18T22:41:26.783Z,19.30
2018-04-18T22:43:54.274Z,19.40
2018-04-18T22:46:20.771Z,19.40
2018-04-18T22:48:48.744Z,19.20
2018-04-18T22:51:14.880Z,19.20
2018-04-18T22:53:41.366Z,19.30
2018-04-18T22:56:09.903Z,19.30
2018-04-18T22:58:36.065Z,19.30
2018-04-18T23:01:05.332Z,19.30
2018-04-18T23:03:31.458Z,19.20
2018-04-18T23:05:59.813Z,19.10
2018-04-18T23:08:27.967Z,19.00
2018-04-18T23:10:54.152Z,18.90
2018-04-18T23:13:20.403Z,18.90
2018-04-18T23:15:46.858Z,18.90
2018-04-18T23:18:14.059Z,18.90
2018-04-18T23:20:40.542Z,18.90
2018-04-18T23:23:07.389Z,18.90
2018-04-18T23:25:34.279Z,18.80
2018-04-18T23:28:00.555Z,18.80
2018-04-18T23:30:27.723Z,18.80
2018-04-18T23:32:53.859Z,18.70
2018-04-18T23:35:20.181Z,18.70
2018-04-18T23:37:46.354Z,18.60
2018-04-18T23:40:12.747Z,18.50
2018-04-18T23:42:39.616Z,18.50
2018-04-18T23:45:05.866Z,18.40
2018-04-18T23:47:32.122Z,18.30
2018-04-18T23:49:58.490Z,18.30
2018-04-18T23:52:24.817Z,18.30
2018-04-18T23:54:53.249Z,18.40
2018-04-18T23:57:20.896Z,18.40
2018-04-18T23:59:47.122Z,18.40
